Time;durP1;ratioP1;P1;durP2;ratioP2;P2;SDS_P1;SDS_P2;PMS_P1;PMS_P2;Temp;Humidity;BMP_temperature;BMP_pressure;BME280_temperature;BME280_humidity;BME280_pressure;Samples;Min_cycle;Max_cycle;Signal;HPM_P1;HPM_P2
2022/03/06 00:00:50;;;;;;;16.58;9.93;;;;;;;;;;5093704;28;20047;-63
2022/03/06 00:03:16;;;;;;;14.88;9.55;;;;;;;;;;5093789;28;20602;-63
2022/03/06 00:05:42;;;;;;;14.50;9.38;;;;;;;;;;5092762;28;20048;-63
2022/03/06 00:08:08;;;;;;;16.13;9.80;;;;;;;;;;5093636;28;20066;-63
2022/03/06 00:10:35;;;;;;;16.42;10.30;;;;;;;;;;5093995;28;20436;-63
2022/03/06 00:13:01;;;;;;;16.08;9.77;;;;;;;;;;5093726;28;20193;-63
2022/03/06 00:15:27;;;;;;;16.60;10.43;;;;;;;;;;5093789;28;20089;-63
2022/03/06 00:17:56;;;;;;;16.70;10.90;;;;;;;;;;5093443;28;20055;-63
2022/03/06 00:20:23;;;;;;;15.57;9.90;;;;;;;;;;5093667;28;20040;-63
2022/03/06 00:22:49;;;;;;;18.65;10.32;;;;;;;;;;5092967;28;20082;-63
2022/03/06 00:25:15;;;;;;;16.00;10.43;;;;;;;;;;5093583;28;20040;-63
2022/03/06 00:27:41;;;;;;;14.73;10.05;;;;;;;;;;5093696;28;20052;-63
2022/03/06 00:30:07;;;;;;;15.05;10.45;;;;;;;;;;5093132;28;20071;-63
2022/03/06 00:32:34;;;;;;;16.85;10.82;;;;;;;;;;5093624;28;20032;-63
2022/03/06 00:35:00;;;;;;;16.15;10.52;;;;;;;;;;5093217;28;20039;-63
2022/03/06 00:37:26;;;;;;;15.75;10.70;;;;;;;;;;5093098;28;20037;-63
2022/03/06 00:39:52;;;;;;;16.27;10.35;;;;;;;;;;5092855;28;20051;-63
2022/03/06 00:42:18;;;;;;;17.63;11.20;;;;;;;;;;5092520;28;20055;-63
2022/03/06 00:44:44;;;;;;;17.38;10.90;;;;;;;;;;5093096;28;20049;-64
2022/03/06 00:47:10;;;;;;;15.35;10.88;;;;;;;;;;5092926;28;20097;-63
2022/03/06 00:49:36;;;;;;;14.52;10.48;;;;;;;;;;5092563;28;20040;-63
2022/03/06 00:52:03;;;;;;;15.68;9.88;;;;;;;;;;5090004;28;20051;-63
2022/03/06 00:54:29;;;;;;;14.93;10.23;;;;;;;;;;5092864;28;20063;-63
2022/03/06 00:56:55;;;;;;;15.65;11.10;;;;;;;;;;5093159;28;20083;-63
2022/03/06 00:59:21;;;;;;;16.13;11.20;;;;;;;;;;5092825;28;20473;-63
2022/03/06 01:01:47;;;;;;;16.13;11.05;;;;;;;;;;5092607;28;20464;-63
2022/03/06 01:04:13;;;;;;;15.57;10.75;;;;;;;;;;5092206;28;20054;-63
2022/03/06 01:06:39;;;;;;;16.13;10.20;;;;;;;;;;5092613;28;20486;-63
2022/03/06 01:09:05;;;;;;;15.93;10.52;;;;;;;;;;5092196;28;20126;-63
2022/03/06 01:11:34;;;;;;;14.90;10.40;;;;;;;;;;5092019;28;20501;-63
2022/03/06 01:14:00;;;;;;;16.70;10.88;;;;;;;;;;5092425;28;20028;-63
2022/03/06 01:16:26;;;;;;;16.90;10.60;;;;;;;;;;5092117;28;20043;-62
2022/03/06 01:18:52;;;;;;;17.38;11.18;;;;;;;;;;5092263;28;20139;-63
2022/03/06 01:21:18;;;;;;;13.50;10.13;;;;;;;;;;5091753;28;20044;-63
2022/03/06 01:23:44;;;;;;;16.30;11.02;;;;;;;;;;5092492;28;20042;-63
2022/03/06 01:26:10;;;;;;;14.85;10.02;;;;;;;;;;5091798;28;20533;-63
2022/03/06 01:28:36;;;;;;;14.73;9.90;;;;;;;;;;5091862;28;20036;-64
2022/03/06 01:31:02;;;;;;;14.57;10.55;;;;;;;;;;5091934;28;20097;-63
2022/03/06 01:33:28;;;;;;;14.60;10.07;;;;;;;;;;5091039;28;20068;-63
2022/03/06 01:35:54;;;;;;;16.02;10.40;;;;;;;;;;5091660;28;20040;-62
2022/03/06 01:38:20;;;;;;;16.25;10.43;;;;;;;;;;5091977;28;20039;-63
2022/03/06 01:40:46;;;;;;;17.08;11.10;;;;;;;;;;5091712;28;20043;-63
2022/03/06 01:43:12;;;;;;;15.80;10.00;;;;;;;;;;5090314;28;20055;-63
2022/03/06 01:45:38;;;;;;;18.35;10.60;;;;;;;;;;5091600;28;20032;-63
2022/03/06 01:48:08;;;;;;;15.57;10.38;;;;;;;;;;5091729;28;20039;-63
2022/03/06 01:50:34;;;;;;;15.55;10.27;;;;;;;;;;5091696;28;20504;-63
2022/03/06 01:53:01;;;;;;;14.38;9.75;;;;;;;;;;5091577;28;20119;-63
2022/03/06 01:55:28;;;;;;;14.43;10.52;;;;;;;;;;5089658;28;20044;-63
2022/03/06 01:57:55;;;;;;;13.98;10.65;;;;;;;;;;5091689;28;20464;-63
2022/03/06 02:00:25;;;;;;;14.73;10.10;;;;;;;;;;5090798;28;20089;-63
2022/03/06 02:02:52;;;;;;;15.57;10.07;;;;;;;;;;5091591;28;20075;-63
2022/03/06 02:05:18;;;;;;;14.65;9.75;;;;;;;;;;5090923;28;20090;-63
2022/03/06 02:07:44;;;;;;;14.25;10.55;;;;;;;;;;5091120;28;20390;-63
2022/03/06 02:10:10;;;;;;;17.08;10.43;;;;;;;;;;5091490;28;20036;-63
2022/03/06 02:12:36;;;;;;;15.85;10.82;;;;;;;;;;5091008;28;20078;-63
2022/03/06 02:15:05;;;;;;;19.10;10.73;;;;;;;;;;5090397;28;20085;-63
2022/03/06 02:17:31;;;;;;;13.60;10.18;;;;;;;;;;5090863;28;20420;-63
2022/03/06 02:19:59;;;;;;;15.80;10.40;;;;;;;;;;5090078;28;20067;-63
2022/03/06 02:22:26;;;;;;;14.52;9.77;;;;;;;;;;5090876;28;20044;-63
2022/03/06 02:24:53;;;;;;;16.10;10.82;;;;;;;;;;5088138;28;20474;-63
2022/03/06 02:27:19;;;;;;;14.63;9.93;;;;;;;;;;5089507;28;20089;-63
2022/03/06 02:29:46;;;;;;;17.75;10.40;;;;;;;;;;5090857;28;20043;-63
2022/03/06 02:32:15;;;;;;;14.85;10.15;;;;;;;;;;5089243;28;20119;-63
2022/03/06 02:34:42;;;;;;;17.50;10.05;;;;;;;;;;5089457;28;20478;-63
2022/03/06 02:37:08;;;;;;;14.38;10.70;;;;;;;;;;5090668;28;20479;-63
2022/03/06 02:39:34;;;;;;;15.25;9.73;;;;;;;;;;5089472;28;20390;-62
2022/03/06 02:42:03;;;;;;;17.65;9.82;;;;;;;;;;5090886;28;20044;-63
2022/03/06 02:44:29;;;;;;;15.48;10.30;;;;;;;;;;5091204;28;20032;-62
2022/03/06 02:46:56;;;;;;;13.55;9.93;;;;;;;;;;5090382;28;20851;-63
2022/03/06 02:49:22;;;;;;;14.88;9.90;;;;;;;;;;5088031;28;20061;-63
2022/03/06 02:51:48;;;;;;;14.88;10.00;;;;;;;;;;5088888;28;20464;-64
2022/03/06 02:54:17;;;;;;;12.68;9.45;;;;;;;;;;5090381;28;20036;-63
2022/03/06 02:56:43;;;;;;;13.43;9.20;;;;;;;;;;5090226;28;20046;-63
2022/03/06 02:59:09;;;;;;;14.07;8.90;;;;;;;;;;5090339;28;20126;-63
2022/03/06 03:01:40;;;;;;;14.45;8.82;;;;;;;;;;5090524;28;20457;-64
2022/03/06 03:04:06;;;;;;;14.50;9.77;;;;;;;;;;5089238;28;20038;-63
2022/03/06 03:06:32;;;;;;;13.13;9.02;;;;;;;;;;5090365;28;20036;-63
2022/03/06 03:08:58;;;;;;;15.50;9.52;;;;;;;;;;5090184;28;20031;-63
2022/03/06 03:11:24;;;;;;;13.27;9.27;;;;;;;;;;5090046;28;20031;-63
2022/03/06 03:13:50;;;;;;;12.45;9.18;;;;;;;;;;5090516;28;20465;-62
2022/03/06 03:16:16;;;;;;;13.43;8.88;;;;;;;;;;5090473;28;20039;-63
2022/03/06 03:18:42;;;;;;;13.75;8.88;;;;;;;;;;5090343;28;20563;-62
2022/03/06 03:21:09;;;;;;;12.73;9.07;;;;;;;;;;5090329;28;20040;-63
2022/03/06 03:23:35;;;;;;;13.23;9.10;;;;;;;;;;5090728;28;20043;-63
2022/03/06 03:26:01;;;;;;;15.27;9.75;;;;;;;;;;5090060;28;20044;-63
2022/03/06 03:28:27;;;;;;;11.07;8.50;;;;;;;;;;5090710;28;20029;-63
2022/03/06 03:30:53;;;;;;;13.27;9.10;;;;;;;;;;5091024;28;20040;-63
2022/03/06 03:33:19;;;;;;;13.63;8.52;;;;;;;;;;5094740;28;20051;-63
2022/03/06 03:35:45;;;;;;;16.25;8.23;;;;;;;;;;5094389;28;20119;-62
2022/03/06 03:38:11;;;;;;;12.30;8.40;;;;;;;;;;5092602;28;20044;-63
2022/03/06 03:40:37;;;;;;;14.27;8.65;;;;;;;;;;5093739;28;20483;-63
2022/03/06 03:43:03;;;;;;;12.82;8.45;;;;;;;;;;5093613;28;20054;-62
2022/03/06 03:45:29;;;;;;;11.32;7.88;;;;;;;;;;5094319;28;20402;-62
2022/03/06 03:47:55;;;;;;;14.65;7.93;;;;;;;;;;5094292;28;20035;-63
2022/03/06 03:50:21;;;;;;;13.25;7.97;;;;;;;;;;5093257;28;20101;-63
2022/03/06 03:52:47;;;;;;;10.52;7.70;;;;;;;;;;5092342;28;20039;-63
2022/03/06 03:55:13;;;;;;;10.43;7.82;;;;;;;;;;5093575;28;20105;-63
2022/03/06 03:57:39;;;;;;;11.95;7.70;;;;;;;;;;5093582;28;20032;-63
2022/03/06 04:00:06;;;;;;;11.73;7.93;;;;;;;;;;5093846;28;20482;-63
2022/03/06 04:02:32;;;;;;;11.82;8.10;;;;;;;;;;5093743;28;20052;-63
2022/03/06 04:04:58;;;;;;;13.98;7.55;;;;;;;;;;5094054;28;20032;-63
2022/03/06 04:07:24;;;;;;;11.63;7.55;;;;;;;;;;5093409;28;20059;-63
2022/03/06 04:09:51;;;;;;;12.50;7.80;;;;;;;;;;5093492;28;20269;-62
2022/03/06 04:12:17;;;;;;;11.15;7.25;;;;;;;;;;5092385;28;20082;-63
2022/03/06 04:14:43;;;;;;;11.55;7.15;;;;;;;;;;5093887;28;20123;-62
2022/03/06 04:17:09;;;;;;;11.70;8.32;;;;;;;;;;5093681;28;20032;-63
2022/03/06 04:19:35;;;;;;;10.15;7.18;;;;;;;;;;5093409;28;20055;-63
2022/03/06 04:22:01;;;;;;;10.95;7.72;;;;;;;;;;5093641;28;20119;-63
2022/03/06 04:24:27;;;;;;;9.57;7.07;;;;;;;;;;5093691;28;20501;-63
2022/03/06 04:26:53;;;;;;;10.00;7.30;;;;;;;;;;5093688;28;20111;-62
2022/03/06 04:29:19;;;;;;;12.40;7.68;;;;;;;;;;5093639;28;20036;-64
2022/03/06 04:31:45;;;;;;;11.93;8.00;;;;;;;;;;5093376;28;20498;-63
2022/03/06 04:34:11;;;;;;;11.05;7.30;;;;;;;;;;5093414;28;20123;-63
2022/03/06 04:36:37;;;;;;;12.55;6.60;;;;;;;;;;5092635;28;20028;-62
2022/03/06 04:39:04;;;;;;;10.95;7.47;;;;;;;;;;5093113;28;20044;-63
2022/03/06 04:41:31;;;;;;;9.93;7.07;;;;;;;;;;5092500;28;20398;-63
2022/03/06 04:43:57;;;;;;;11.82;7.18;;;;;;;;;;5093207;28;20390;-63
2022/03/06 04:46:23;;;;;;;15.52;7.10;;;;;;;;;;5093091;28;20075;-63
2022/03/06 04:48:49;;;;;;;10.45;7.40;;;;;;;;;;5093062;28;20036;-62
2022/03/06 04:51:16;;;;;;;13.57;8.13;;;;;;;;;;5092654;28;20043;-63
2022/03/06 04:53:42;;;;;;;10.80;7.22;;;;;;;;;;5092516;28;20072;-62
2022/03/06 04:56:08;;;;;;;10.57;7.32;;;;;;;;;;5092994;28;20068;-64
2022/03/06 04:58:35;;;;;;;10.60;6.80;;;;;;;;;;5092447;28;20143;-62
2022/03/06 05:01:02;;;;;;;13.00;7.60;;;;;;;;;;5092938;28;20517;-62
2022/03/06 05:03:28;;;;;;;11.20;6.97;;;;;;;;;;5092540;28;20040;-63
2022/03/06 05:05:55;;;;;;;10.75;6.93;;;;;;;;;;5092712;28;20042;-63
2022/03/06 05:08:21;;;;;;;9.30;7.03;;;;;;;;;;5093182;28;20039;-62
2022/03/06 05:10:47;;;;;;;9.15;6.38;;;;;;;;;;5092381;28;20554;-63
2022/03/06 05:13:13;;;;;;;9.88;6.50;;;;;;;;;;5092577;28;20048;-63
2022/03/06 05:15:40;;;;;;;12.75;7.20;;;;;;;;;;5091987;28;20371;-63
2022/03/06 05:18:07;;;;;;;12.40;7.28;;;;;;;;;;5092551;28;20036;-63
2022/03/06 05:20:33;;;;;;;8.93;6.20;;;;;;;;;;5091921;28;20098;-63
2022/03/06 05:22:59;;;;;;;9.57;6.03;;;;;;;;;;5092700;28;20126;-64
2022/03/06 05:25:26;;;;;;;9.18;6.38;;;;;;;;;;5091792;28;20040;-63
2022/03/06 05:27:52;;;;;;;10.10;6.45;;;;;;;;;;5091763;28;20044;-63
2022/03/06 05:30:18;;;;;;;9.48;6.25;;;;;;;;;;5091716;28;20062;-63
2022/03/06 05:32:44;;;;;;;10.48;6.05;;;;;;;;;;5091907;28;20044;-63
2022/03/06 05:35:10;;;;;;;10.23;6.10;;;;;;;;;;5091632;28;20105;-63
2022/03/06 05:37:36;;;;;;;8.77;5.38;;;;;;;;;;5091390;28;20084;-63
2022/03/06 05:40:03;;;;;;;9.45;6.30;;;;;;;;;;5091484;28;20482;-64
2022/03/06 05:42:29;;;;;;;8.82;5.55;;;;;;;;;;5091999;28;20453;-63
2022/03/06 05:44:55;;;;;;;9.27;5.75;;;;;;;;;;5091299;28;20032;-62
2022/03/06 05:47:21;;;;;;;10.27;4.97;;;;;;;;;;5091082;28;20036;-62
2022/03/06 05:49:47;;;;;;;7.95;4.93;;;;;;;;;;5089722;28;20387;-62
2022/03/06 05:52:13;;;;;;;8.82;5.30;;;;;;;;;;5091535;28;20040;-63
2022/03/06 05:54:39;;;;;;;11.25;4.97;;;;;;;;;;5090880;28;20039;-63
2022/03/06 05:57:06;;;;;;;10.35;5.28;;;;;;;;;;5091035;28;20409;-63
2022/03/06 05:59:32;;;;;;;8.18;5.10;;;;;;;;;;5091643;28;20040;-63
2022/03/06 06:01:58;;;;;;;7.43;5.18;;;;;;;;;;5089802;28;20097;-63
2022/03/06 06:04:25;;;;;;;7.63;4.93;;;;;;;;;;5090171;28;20448;-63
2022/03/06 06:06:51;;;;;;;8.27;4.95;;;;;;;;;;5091343;28;20092;-63
2022/03/06 06:09:17;;;;;;;9.88;4.93;;;;;;;;;;5090988;28;20047;-63
2022/03/06 06:11:43;;;;;;;6.68;4.13;;;;;;;;;;5090469;28;20040;-63
2022/03/06 06:14:09;;;;;;;9.98;5.05;;;;;;;;;;5091160;28;20469;-63
2022/03/06 06:16:35;;;;;;;5.93;4.38;;;;;;;;;;5091487;28;20502;-63
2022/03/06 06:19:01;;;;;;;7.30;4.70;;;;;;;;;;5090885;28;20239;-63
2022/03/06 06:21:27;;;;;;;7.65;4.68;;;;;;;;;;5090970;28;20051;-63
2022/03/06 06:23:53;;;;;;;7.72;4.65;;;;;;;;;;5090511;28;20039;-64
2022/03/06 06:26:19;;;;;;;6.07;4.03;;;;;;;;;;5091352;28;20064;-63
2022/03/06 06:28:47;;;;;;;8.05;4.50;;;;;;;;;;5091103;28;20043;-63
2022/03/06 06:31:13;;;;;;;7.93;4.78;;;;;;;;;;5090531;28;20058;-63
2022/03/06 06:33:39;;;;;;;7.72;4.55;;;;;;;;;;5090739;28;20051;-63
2022/03/06 06:36:06;;;;;;;7.50;4.07;;;;;;;;;;5089663;28;20085;-63
2022/03/06 06:38:32;;;;;;;6.60;4.22;;;;;;;;;;5091049;28;20135;-63
2022/03/06 06:40:59;;;;;;;7.55;4.28;;;;;;;;;;5089061;28;20074;-63
2022/03/06 06:43:25;;;;;;;7.47;4.45;;;;;;;;;;5090090;28;20383;-63
2022/03/06 06:45:51;;;;;;;7.68;3.92;;;;;;;;;;5090931;28;20550;-63
2022/03/06 06:48:17;;;;;;;7.65;4.93;;;;;;;;;;5090666;28;20036;-63
2022/03/06 06:50:43;;;;;;;8.90;4.97;;;;;;;;;;5089930;28;20047;-63
2022/03/06 06:53:09;;;;;;;8.20;4.20;;;;;;;;;;5090471;28;20058;-63
2022/03/06 06:55:35;;;;;;;8.48;4.30;;;;;;;;;;5088588;28;20046;-63
2022/03/06 06:58:03;;;;;;;7.90;4.10;;;;;;;;;;5090715;28;20490;-63
2022/03/06 07:00:29;;;;;;;9.70;4.40;;;;;;;;;;5089830;28;20032;-63
2022/03/06 07:02:55;;;;;;;6.20;4.18;;;;;;;;;;5090239;28;20036;-63
2022/03/06 07:05:21;;;;;;;5.43;3.72;;;;;;;;;;5088871;28;20255;-63
2022/03/06 07:07:47;;;;;;;6.40;4.28;;;;;;;;;;5088895;28;20139;-65
2022/03/06 07:10:13;;;;;;;8.57;4.53;;;;;;;;;;5090014;28;20043;-63
2022/03/06 07:12:42;;;;;;;9.50;4.55;;;;;;;;;;5089987;28;20051;-63
2022/03/06 07:15:08;;;;;;;8.07;4.10;;;;;;;;;;5089248;28;20036;-62
2022/03/06 07:17:34;;;;;;;5.97;3.72;;;;;;;;;;5085566;28;20036;-63
2022/03/06 07:20:00;;;;;;;10.32;3.95;;;;;;;;;;5087409;28;20390;-63
2022/03/06 07:22:26;;;;;;;6.22;4.22;;;;;;;;;;5089073;28;20040;-63
2022/03/06 07:24:52;;;;;;;7.43;4.55;;;;;;;;;;5090237;28;20083;-63
2022/03/06 07:27:18;;;;;;;7.07;3.47;;;;;;;;;;5090263;28;20394;-62
2022/03/06 07:29:44;;;;;;;7.45;3.58;;;;;;;;;;5083988;28;20048;-62
2022/03/06 07:32:10;;;;;;;6.93;3.55;;;;;;;;;;5090305;28;20048;-63
2022/03/06 07:34:36;;;;;;;7.50;4.10;;;;;;;;;;5085174;28;20102;-63
2022/03/06 07:37:03;;;;;;;6.72;3.75;;;;;;;;;;5089108;28;20090;-63
2022/03/06 07:39:29;;;;;;;6.97;3.50;;;;;;;;;;5088069;28;20043;-62
2022/03/06 07:41:55;;;;;;;7.10;3.47;;;;;;;;;;5088499;28;20101;-62
2022/03/06 07:44:21;;;;;;;6.30;3.60;;;;;;;;;;5088118;28;20043;-63
2022/03/06 07:46:47;;;;;;;5.55;3.15;;;;;;;;;;5085629;28;20047;-63
2022/03/06 07:49:13;;;;;;;5.57;3.15;;;;;;;;;;5085981;28;20035;-63
2022/03/06 07:51:39;;;;;;;6.53;3.60;;;;;;;;;;5087520;28;20071;-62
2022/03/06 07:54:07;;;;;;;6.60;3.25;;;;;;;;;;5088330;28;20089;-63
2022/03/06 07:56:33;;;;;;;6.18;3.38;;;;;;;;;;5088499;28;20044;-63
2022/03/06 07:58:59;;;;;;;4.97;3.22;;;;;;;;;;5087580;28;20047;-62
2022/03/06 08:01:25;;;;;;;6.03;2.92;;;;;;;;;;5088052;28;20055;-63
2022/03/06 08:03:51;;;;;;;6.30;2.92;;;;;;;;;;5080037;28;20410;-63
2022/03/06 08:06:17;;;;;;;6.43;2.92;;;;;;;;;;5086028;28;20043;-63
2022/03/06 08:08:43;;;;;;;6.45;2.75;;;;;;;;;;5087277;28;20496;-63
2022/03/06 08:11:09;;;;;;;5.50;3.30;;;;;;;;;;5087948;28;20119;-63
2022/03/06 08:13:35;;;;;;;4.60;2.72;;;;;;;;;;5086198;28;20040;-63
2022/03/06 08:16:01;;;;;;;6.78;2.70;;;;;;;;;;5087299;28;20496;-63
2022/03/06 08:18:27;;;;;;;6.63;3.03;;;;;;;;;;5092125;28;20043;-63
2022/03/06 08:20:53;;;;;;;8.68;2.72;;;;;;;;;;5091533;28;20397;-62
2022/03/06 08:23:19;;;;;;;3.28;2.72;;;;;;;;;;5093273;28;20029;-62
2022/03/06 08:25:45;;;;;;;7.93;4.45;;;;;;;;;;5092979;28;20040;-63
2022/03/06 08:28:11;;;;;;;8.05;5.05;;;;;;;;;;5092548;28;20505;-62
2022/03/06 08:30:37;;;;;;;6.45;4.55;;;;;;;;;;5092712;28;20052;-63
2022/03/06 08:33:03;;;;;;;20.65;11.68;;;;;;;;;;5093175;28;20039;-63
2022/03/06 08:35:29;;;;;;;68.80;41.92;;;;;;;;;;5092849;28;20097;-63
2022/03/06 08:37:55;;;;;;;56.83;32.53;;;;;;;;;;5090299;28;20040;-63
2022/03/06 08:40:22;;;;;;;20.75;12.25;;;;;;;;;;5090685;28;20042;-63
2022/03/06 08:42:49;;;;;;;26.10;14.20;;;;;;;;;;5089613;28;20052;-63
2022/03/06 08:45:15;;;;;;;6.90;5.25;;;;;;;;;;5093132;28;20082;-64
2022/03/06 08:47:41;;;;;;;3.65;2.80;;;;;;;;;;5092667;28;20535;-63
2022/03/06 08:50:07;;;;;;;4.95;2.45;;;;;;;;;;5091448;28;20357;-63
2022/03/06 08:52:33;;;;;;;3.38;2.47;;;;;;;;;;5090343;28;20441;-62
2022/03/06 08:54:59;;;;;;;4.00;2.67;;;;;;;;;;5088215;28;20040;-63
2022/03/06 08:57:25;;;;;;;5.82;2.40;;;;;;;;;;5092887;28;20093;-63
2022/03/06 08:59:53;;;;;;;4.70;2.05;;;;;;;;;;5091842;28;20040;-63
2022/03/06 09:02:19;;;;;;;3.67;1.85;;;;;;;;;;5092776;28;20044;-63
2022/03/06 09:04:45;;;;;;;3.88;2.03;;;;;;;;;;5092614;28;20040;-63
2022/03/06 09:07:11;;;;;;;6.50;2.30;;;;;;;;;;5092706;28;20138;-63
2022/03/06 09:09:37;;;;;;;3.60;2.40;;;;;;;;;;5087578;28;20054;-62
2022/03/06 09:12:04;;;;;;;4.07;2.35;;;;;;;;;;5092564;28;20444;-63
2022/03/06 09:14:30;;;;;;;2.88;2.00;;;;;;;;;;5092313;28;20036;-63
2022/03/06 09:16:56;;;;;;;4.22;2.35;;;;;;;;;;5090254;28;20462;-63
2022/03/06 09:19:22;;;;;;;4.93;2.30;;;;;;;;;;5088207;28;20038;-63
2022/03/06 09:21:48;;;;;;;3.20;2.20;;;;;;;;;;5088629;28;20091;-63
2022/03/06 09:24:14;;;;;;;4.00;2.08;;;;;;;;;;5087936;28;20040;-63
2022/03/06 09:26:40;;;;;;;3.00;2.10;;;;;;;;;;5092714;28;20032;-63
2022/03/06 09:29:06;;;;;;;4.07;2.03;;;;;;;;;;5085352;28;20040;-63
2022/03/06 09:31:32;;;;;;;4.18;2.42;;;;;;;;;;5092653;28;20458;-63
2022/03/06 09:33:58;;;;;;;4.00;2.47;;;;;;;;;;5089468;28;20032;-62
2022/03/06 09:36:24;;;;;;;3.45;2.75;;;;;;;;;;5087227;28;20032;-63
2022/03/06 09:38:50;;;;;;;2.92;2.00;;;;;;;;;;5092266;28;20043;-63
2022/03/06 09:41:18;;;;;;;2.92;2.38;;;;;;;;;;5091010;28;20051;-63
2022/03/06 09:43:44;;;;;;;4.18;2.58;;;;;;;;;;5092578;28;20052;-63
2022/03/06 09:46:10;;;;;;;4.28;2.33;;;;;;;;;;5091255;28;20406;-64
2022/03/06 09:48:37;;;;;;;3.35;2.35;;;;;;;;;;5092247;28;20028;-63
2022/03/06 09:51:04;;;;;;;3.92;2.13;;;7.20;99.90;;;;;;5090815;28;20036;-63
2022/03/06 09:53:31;;;;;;;6.03;2.70;;;;;;;;;;5089199;28;20036;-63
2022/03/06 09:55:57;;;;;;;4.47;3.53;;;;;;;;;;5090780;28;20415;-63
2022/03/06 09:58:24;;;;;;;4.22;2.55;;;;;;;;;;5091194;28;20043;-63
2022/03/06 10:00:50;;;;;;;4.70;2.50;;;;;;;;;;5090788;28;20040;-63
2022/03/06 10:03:17;;;;;;;4.70;2.67;;;;;;;;;;5090242;28;20036;-63
2022/03/06 10:05:43;;;;;;;4.63;2.53;;;;;;;;;;5092157;28;20093;-63
2022/03/06 10:08:29;;;;;;;3.67;2.30;;;;;;;;;;5090617;28;20055;-63
2022/03/06 10:10:56;;;;;;;3.40;2.08;;;;;;;;;;5091082;28;20079;-63
2022/03/06 10:13:22;;;;;;;3.50;2.20;;;;;;;;;;5090735;28;20067;-63
2022/03/06 10:16:16;;;;;;;5.35;2.25;;;8.50;99.90;;;;;;5089207;28;20039;-63
2022/03/06 10:18:47;;;;;;;4.15;2.47;;;;;;;;;;5091194;28;20589;-63
2022/03/06 10:21:18;;;;;;;3.53;2.08;;;;;;;;;;5090281;28;20048;-63
2022/03/06 10:23:44;;;;;;;4.25;1.90;;;;;;;;;;5091062;28;20092;-62
2022/03/06 10:26:11;;;;;;;4.88;1.90;;;;;;;;;;5090689;28;20035;-63
2022/03/06 10:28:47;;;;;;;2.83;1.70;;;8.60;99.90;;;;;;5090381;28;20067;-64
2022/03/06 10:31:15;;;;;;;3.03;1.90;;;8.90;99.90;;;;;;5091061;28;20148;-63
2022/03/06 10:33:41;;;;;;;2.80;1.70;;;;;;;;;;5086993;28;20482;-63
2022/03/06 10:36:08;;;;;;;10.55;6.68;;;9.40;99.90;;;;;;5090874;28;20505;-63
2022/03/06 10:38:35;;;;;;;4.95;2.30;;;9.60;99.90;;;;;;5090657;28;20089;-64
2022/03/06 10:41:10;;;;;;;4.18;2.30;;;;;;;;;;5090712;28;20398;-63
2022/03/06 10:43:36;;;;;;;5.60;1.83;;;;;;;;;;5089673;28;20048;-64
2022/03/06 10:46:12;;;;;;;4.80;1.70;;;10.10;99.90;;;;;;5090338;28;20036;-63
2022/03/06 10:48:38;;;;;;;3.78;1.92;;;;;;;;;;5090789;28;20042;-64
2022/03/06 10:51:07;;;;;;;4.25;2.03;;;10.50;99.90;;;;;;5089109;28;20032;-63
2022/03/06 10:53:34;;;;;;;3.75;2.00;;;;;;;;;;5090773;28;20039;-63
2022/03/06 10:56:10;;;;;;;7.07;5.88;;;;;;;;;;5089619;28;20494;-63
2022/03/06 10:58:39;;;;;;;2.30;1.80;;;11.00;99.90;;;;;;5086813;28;20544;-64
2022/03/06 11:01:05;;;;;;;6.43;4.28;;;;;;;;;;5090753;28;20036;-63
2022/03/06 11:03:35;;;;;;;3.20;2.30;;;11.20;99.90;;;;;;5090693;28;20391;-64
2022/03/06 11:06:06;;;;;;;3.70;2.20;;;11.20;99.90;;;;;;5090475;28;20039;-63
2022/03/06 11:08:32;;;;;;;9.30;5.78;;;;;;;;;;5089968;28;20039;-63
2022/03/06 11:10:59;;;;;;;4.70;2.60;;;;;;;;;;5089954;28;20039;-64
2022/03/06 11:13:27;;;;;;;3.95;1.67;;;;;;;;;;5090594;28;20040;-64
2022/03/06 11:15:53;;;;;;;3.90;1.90;;;;;;;;;;5090558;28;20153;-63
2022/03/06 11:18:19;;;;;;;3.78;1.70;;;;;;;;;;5090409;28;20078;-63
2022/03/06 11:20:46;;;;;;;6.35;1.95;;;12.50;99.90;;;;;;5090198;28;20040;-64
2022/03/06 11:23:18;;;;;;;4.32;3.10;;;;;;;;;;5089704;28;20103;-62
2022/03/06 11:26:03;;;;;;;4.05;2.42;;;;;;;;;;5090058;28;20040;-63
2022/03/06 11:28:39;;;;;;;3.20;1.80;;;;;;;;;;5090697;28;20044;-64
2022/03/06 11:31:05;;;;;;;4.40;3.05;;;;;;;;;;5090352;28;20032;-63
2022/03/06 11:33:31;;;;;;;2.88;1.80;;;;;;;;;;5090182;28;20537;-63
2022/03/06 11:35:57;;;;;;;2.30;1.80;;;;;;;;;;5088943;28;20066;-63
2022/03/06 11:38:38;;;;;;;5.95;2.00;;;;;;;;;;5090404;28;20036;-64
2022/03/06 11:41:10;;;;;;;3.53;2.10;;;12.80;98.90;;;;;;5089982;28;20044;-64
2022/03/06 11:43:48;;;;;;;2.50;1.63;;;13.10;99.90;;;;;;5090418;28;20055;-64
2022/03/06 11:46:18;;;;;;;3.38;1.60;;;;;;;;;;5088947;28;20051;-64
2022/03/06 11:48:44;;;;;;;5.55;2.17;;;;;;;;;;5090650;28;20040;-63
2022/03/06 11:51:13;;;;;;;6.10;2.08;;;;;;;;;;5090299;28;20505;-64
2022/03/06 11:53:56;;;;;;;3.17;2.00;;;13.00;99.00;;;;;;5094064;28;20035;-64
2022/03/06 11:56:45;;;;;;;4.57;2.30;;;;;;;;;;5094652;28;20047;-63
2022/03/06 11:59:11;;;;;;;2.15;1.92;;;;;;;;;;5093998;28;20040;-61
2022/03/06 12:01:42;;;;;;;4.05;2.15;;;13.40;97.50;;;;;;5094254;28;20040;-62
2022/03/06 12:04:08;;;;;;;3.00;2.20;;;;;;;;;;5093835;28;20075;-61
2022/03/06 12:06:42;;;;;;;3.70;2.03;;;;;;;;;;5093363;28;20087;-63
2022/03/06 12:09:19;;;;;;;3.78;2.65;;;13.70;97.30;;;;;;5093756;28;20040;-64
2022/03/06 12:11:47;;;;;;;3.78;2.25;;;13.40;98.00;;;;;;5076104;28;20089;-63
2022/03/06 12:14:14;;;;;;;4.10;2.33;;;13.30;97.00;;;;;;5093431;28;20505;-63
2022/03/06 12:17:02;;;;;;;6.53;4.45;;;13.30;96.90;;;;;;5092982;28;20085;-64
2022/03/06 12:19:28;;;;;;;3.78;3.00;;;;;;;;;;5092463;28;20371;-62
2022/03/06 12:22:28;;;;;;;6.20;3.42;;;13.00;97.40;;;;;;5093693;28;20043;-62
2022/03/06 12:25:06;;;;;;;4.80;3.20;;;;;;;;;;5093651;28;20029;-62
2022/03/06 12:27:33;;;;;;;4.97;2.88;;;;;;;;;;5093295;28;20043;-63
2022/03/06 12:30:00;;;;;;;6.68;3.47;;;12.90;99.10;;;;;;5093557;28;20074;-64
2022/03/06 12:32:26;;;;;;;7.45;2.80;;;;;;;;;;5094031;28;20398;-64
2022/03/06 12:34:56;;;;;;;6.47;5.25;;;;;;;;;;5094252;28;20040;-64
2022/03/06 12:37:37;;;;;;;5.93;3.30;;;13.10;98.60;;;;;;5093818;28;20047;-64
2022/03/06 12:40:06;;;;;;;4.25;2.30;;;13.20;97.90;;;;;;5093365;28;20044;-64
2022/03/06 12:42:34;;;;;;;3.78;2.03;;;13.40;97.10;;;;;;5092937;28;20079;-64
2022/03/06 12:45:11;;;;;;;5.00;2.10;;;13.10;97.00;;;;;;5092998;28;20036;-64
2022/03/06 12:47:38;;;;;;;4.20;2.03;;;12.90;96.00;;;;;;5092451;28;20032;-64
2022/03/06 12:50:06;;;;;;;4.35;2.63;;;13.30;96.90;;;;;;5093022;28;20047;-63
2022/03/06 12:52:33;;;;;;;3.75;2.00;;;;;;;;;;5090675;28;20048;-64
2022/03/06 12:55:00;;;;;;;5.47;2.58;;;;;;;;;;5092766;28;20051;-64
2022/03/06 12:57:36;;;;;;;4.35;2.10;;;;;;;;;;5092385;28;20044;-65
2022/03/06 13:00:08;;;;;;;2.90;1.88;;;13.40;95.90;;;;;;5092893;28;20460;-64
2022/03/06 13:02:34;;;;;;;6.10;2.33;;;;;;;;;;5092360;28;20093;-64
2022/03/06 13:05:00;;;;;;;3.50;1.83;;;;;;;;;;5092944;28;20031;-64
2022/03/06 13:07:31;;;;;;;4.95;1.90;;;12.70;96.60;;;;;;5092223;28;20094;-64
2022/03/06 13:09:57;;;;;;;4.85;2.20;;;;;;;;;;5092454;28;20036;-62
2022/03/06 13:12:23;;;;;;;3.85;1.95;;;;;;;;;;5092900;28;20040;-62
2022/03/06 13:14:49;;;;;;;4.22;1.95;;;;;;;;;;5091358;28;20040;-61
2022/03/06 13:17:19;;;;;;;5.95;2.38;;;14.00;96.20;;;;;;5091193;28;20201;-62
2022/03/06 13:19:54;;;;;;;4.80;2.28;;;;;;;;;;5092084;28;20443;-62
2022/03/06 13:22:21;;;;;;;3.95;1.90;;;14.10;95.50;;;;;;5091844;28;20043;-62
2022/03/06 13:24:54;;;;;;;3.60;1.90;;;13.60;95.50;;;;;;5092583;28;20042;-63
2022/03/06 13:27:25;;;;;;;3.42;1.90;;;13.40;95.80;;;;;;5090596;28;20043;-62
2022/03/06 13:30:12;;;;;;;4.13;1.90;;;13.40;96.10;;;;;;5092766;28;20036;-62
2022/03/06 13:32:49;;;;;;;4.43;1.92;;;14.10;95.30;;;;;;5090918;28;20075;-62
2022/03/06 13:35:27;;;;;;;3.35;1.70;;;;;;;;;;5092360;28;20043;-62
2022/03/06 13:38:01;;;;;;;5.68;2.15;;;;;;;;;;5090169;28;20051;-62
2022/03/06 13:40:29;;;;;;;4.38;2.20;;;15.00;94.80;;;;;;5089497;28;20036;-62
2022/03/06 13:42:55;;;;;;;4.57;2.00;;;;;;;;;;5091702;28;20107;-62
2022/03/06 13:45:21;;;;;;;3.92;1.65;;;;;;;;;;5092326;28;20080;-62
2022/03/06 13:47:49;;;;;;;4.78;1.98;;;;;;;;;;5091877;28;20040;-62
2022/03/06 13:50:18;;;;;;;3.85;1.77;;;;;;;;;;5092256;28;20119;-62
2022/03/06 13:52:46;;;;;;;4.15;1.75;;;17.30;94.30;;;;;;5092145;28;20501;-62
2022/03/06 13:55:13;;;;;;;4.85;2.13;;;16.70;93.50;;;;;;5092173;28;20501;-62
2022/03/06 13:57:41;;;;;;;3.78;2.00;;;;;;;;;;5091433;28;20048;-62
2022/03/06 14:00:33;;;;;;;1.95;1.63;;;;;;;;;;5086949;28;20099;-62
2022/03/06 14:03:08;;;;;;;2.75;1.77;;;16.00;94.10;;;;;;5066695;28;20052;-61
2022/03/06 14:05:47;;;;;;;3.95;1.92;;;;;;;;;;5090675;28;20036;-62
2022/03/06 14:08:13;;;;;;;4.13;1.98;;;;;;;;;;5089920;28;20069;-62
2022/03/06 14:10:40;;;;;;;4.75;2.08;;;16.70;92.60;;;;;;5091245;28;20032;-63
2022/03/06 14:13:27;;;;;;;5.95;2.17;;;15.80;91.20;;;;;;5090310;28;20093;-62
2022/03/06 14:15:58;;;;;;;5.22;1.92;;;14.60;92.50;;;;;;5090591;28;20047;-63
2022/03/06 14:18:33;;;;;;;3.45;2.00;;;;;;;;;;5089289;28;20048;-62
2022/03/06 14:20:59;;;;;;;4.43;2.17;;;13.00;93.20;;;;;;5090942;28;20036;-62